sensor_id;sensor_type;location;lat;lon;timestamp;temperature;humidity
31307;DHT22;17935;51.120;13.132;2023-11-18T02:46:43;3.60;99.90
31307;DHT22;17935;51.120;13.132;2023-11-18T02:52:20;3.60;99.90
31307;DHT22;17935;51.120;13.132;2023-11-18T02:55:00;3.60;99.90
31307;DHT22;17935;51.120;13.132;2023-11-18T02:58:13;3.50;99.90
31307;DHT22;17935;51.120;13.132;2023-11-18T03:04:03;3.50;99.90
31307;DHT22;17935;51.120;13.132;2023-11-18T03:06:50;3.60;99.90
31307;DHT22;17935;51.120;13.132;2023-11-18T03:09:45;3.70;99.90
31307;DHT22;17935;51.120;13.132;2023-11-18T03:12:25;3.80;99.90
31307;DHT22;17935;51.120;13.132;2023-11-18T03:15:35;3.80;99.90
31307;DHT22;17935;51.120;13.132;2023-11-18T03:18:32;3.80;99.90
31307;DHT22;17935;51.120;13.132;2023-11-18T03:21:10;3.90;99.90
31307;DHT22;17935;51.120;13.132;2023-11-18T03:23:38;3.90;99.90
31307;DHT22;17935;51.120;13.132;2023-11-18T03:26:12;4.00;99.90
31307;DHT22;17935;51.120;13.132;2023-11-18T03:28:52;4.00;99.90
31307;DHT22;17935;51.120;13.132;2023-11-18T03:31:21;4.00;99.90
31307;DHT22;17935;51.120;13.132;2023-11-18T03:34:22;4.00;99.90
31307;DHT22;17935;51.120;13.132;2023-11-18T03:37:21;4.10;99.90
31307;DHT22;17935;51.120;13.132;2023-11-18T03:39:53;4.10;99.90
31307;DHT22;17935;51.120;13.132;2023-11-18T03:42:27;4.10;99.90
31307;DHT22;17935;51.120;13.132;2023-11-18T03:45:09;4.10;99.90
31307;DHT22;17935;51.120;13.132;2023-11-18T03:47:55;4.20;99.90
31307;DHT22;17935;51.120;13.132;2023-11-18T03:50:28;4.10;99.90
31307;DHT22;17935;51.120;13.132;2023-11-18T03:55:42;4.20;99.90
31307;DHT22;17935;51.120;13.132;2023-11-18T03:58:23;4.20;99.90
31307;DHT22;17935;51.120;13.132;2023-11-18T04:01:21;4.10;99.90
31307;DHT22;17935;51.120;13.132;2023-11-18T04:03:53;4.10;99.90
31307;DHT22;17935;51.120;13.132;2023-11-18T04:06:22;4.10;99.90
31307;DHT22;17935;51.120;13.132;2023-11-18T04:08:55;4.10;99.90
31307;DHT22;17935;51.120;13.132;2023-11-18T04:11:26;4.10;99.90
31307;DHT22;17935;51.120;13.132;2023-11-18T04:13:57;4.10;99.90
31307;DHT22;17935;51.120;13.132;2023-11-18T04:16:51;4.10;99.90
31307;DHT22;17935;51.120;13.132;2023-11-18T04:22:27;4.20;99.90
31307;DHT22;17935;51.120;13.132;2023-11-18T04:25:12;4.20;99.90
31307;DHT22;17935;51.120;13.132;2023-11-18T04:34:40;4.10;99.90
31307;DHT22;17935;51.120;13.132;2023-11-18T04:37:11;4.20;99.90
31307;DHT22;17935;51.120;13.132;2023-11-18T04:46:59;4.20;99.90
31307;DHT22;17935;51.120;13.132;2023-11-18T04:50:04;4.20;99.90
31307;DHT22;17935;51.120;13.132;2023-11-18T04:59:18;4.20;99.90
31307;DHT22;17935;51.120;13.132;2023-11-18T05:05:02;4.20;99.90
31307;DHT22;17935;51.120;13.132;2023-11-18T05:07:37;4.20;99.90
31307;DHT22;17935;51.120;13.132;2023-11-18T05:10:20;4.20;99.90
31307;DHT22;17935;51.120;13.132;2023-11-18T05:12:58;4.20;99.90
31307;DHT22;17935;51.120;13.132;2023-11-18T05:15:38;4.20;99.90
31307;DHT22;17935;51.120;13.132;2023-11-18T05:18:55;4.20;99.90
31307;DHT22;17935;51.120;13.132;2023-11-18T05:21:48;4.10;99.90
31307;DHT22;17935;51.120;13.132;2023-11-18T05:25:00;4.10;99.90
31307;DHT22;17935;51.120;13.132;2023-11-18T05:27:26;4.10;99.90
31307;DHT22;17935;51.120;13.132;2023-11-18T05:29:55;4.10;99.90
31307;DHT22;17935;51.120;13.132;2023-11-18T05:47:25;4.10;99.90
31307;DHT22;17935;51.120;13.132;2023-11-18T05:50:18;4.10;99.90
31307;DHT22;17935;51.120;13.132;2023-11-18T05:53:29;4.10;99.90
31307;DHT22;17935;51.120;13.132;2023-11-18T05:56:41;4.00;99.90
31307;DHT22;17935;51.120;13.132;2023-11-18T06:13:47;4.00;99.90
31307;DHT22;17935;51.120;13.132;2023-11-18T06:29:46;4.20;99.90
31307;DHT22;17935;51.120;13.132;2023-11-18T06:32:53;4.10;99.90
31307;DHT22;17935;51.120;13.132;2023-11-18T06:35:39;4.10;99.90
31307;DHT22;17935;51.120;13.132;2023-11-18T06:38:31;4.20;99.90
31307;DHT22;17935;51.120;13.132;2023-11-18T06:53:20;4.20;99.90
